Time;durP1;ratioP1;P1;durP2;ratioP2;P2;SDS_P1;SDS_P2;PMS_P1;PMS_P2;Temp;Humidity;BMP_temperature;BMP_pressure;BME280_temperature;BME280_humidity;BME280_pressure;Samples;Min_cycle;Max_cycle;Signal;HPM_P1;HPM_P2
2021/11/06 00:00:05;;;;;;;5.80;2.05;;;;;;;16.42;43.06;94363.63;5009324;28;20041;-73
2021/11/06 00:02:30;;;;;;;3.92;1.95;;;;;;;16.42;43.21;94366.31;5008889;28;20068;-73
2021/11/06 00:04:56;;;;;;;7.55;2.38;;;;;;;16.55;43.20;94383.97;5013718;28;20038;-73
2021/11/06 00:07:21;;;;;;;10.15;2.53;;;;;;;16.44;43.35;94380.16;5003477;28;20199;-74
2021/11/06 00:09:47;;;;;;;11.25;1.98;;;;;;;16.21;43.37;94356.41;5010758;28;20013;-73
2021/11/06 00:12:13;;;;;;;5.65;2.92;;;;;;;16.17;43.75;94360.09;5002396;28;20034;-73
2021/11/06 00:14:38;;;;;;;6.32;2.90;;;;;;;16.30;44.05;94375.91;5005099;28;21694;-73
2021/11/06 00:17:04;;;;;;;6.00;1.88;;;;;;;16.28;43.70;94367.38;5012492;28;20034;-73
2021/11/06 00:19:29;;;;;;;6.10;2.42;;;;;;;16.46;43.73;94385.97;5005330;28;20038;-74
2021/11/06 00:21:55;;;;;;;5.72;2.53;;;;;;;16.28;43.71;94345.88;5003081;28;20115;-72
2021/11/06 00:24:21;;;;;;;4.43;2.08;;;;;;;16.56;43.41;94378.25;5012944;28;20414;-76
2021/11/06 00:26:50;;;;;;;8.23;2.65;;;;;;;16.47;44.02;94390.22;5006162;28;20053;-75
2021/11/06 00:29:17;;;;;;;4.95;2.42;;;;;;;16.39;44.10;94399.16;5007022;28;20046;-73
2021/11/06 00:31:42;;;;;;;6.82;2.17;;;;;;;16.33;44.04;94385.19;5004010;28;20456;-74
2021/11/06 00:34:08;;;;;;;5.70;2.63;;;;;;;16.47;43.82;94406.34;5004506;28;20523;-72
2021/11/06 00:36:33;;;;;;;8.57;2.00;;;;;;;16.52;43.90;94414.19;5004915;28;20030;-73
2021/11/06 00:38:59;;;;;;;5.90;2.45;;;;;;;16.50;43.76;94409.13;5007975;28;20061;-74
2021/11/06 00:41:24;;;;;;;4.82;2.25;;;;;;;16.46;43.79;94394.03;5002892;28;20404;-75
2021/11/06 00:43:50;;;;;;;5.38;2.70;;;;;;;16.45;43.51;94392.47;5011266;28;20116;-74
2021/11/06 00:46:15;;;;;;;3.38;2.05;;;;;;;16.54;43.81;94410.03;5014124;28;20042;-73
2021/11/06 00:48:41;;;;;;;3.50;2.00;;;;;;;16.56;43.78;94404.31;5012411;28;20037;-73
2021/11/06 00:51:07;;;;;;;6.63;2.38;;;;;;;16.50;43.52;94392.25;5012923;28;20045;-73
2021/11/06 00:53:32;;;;;;;4.57;2.00;;;;;;;16.62;43.73;94409.13;5007752;28;20447;-73
2021/11/06 00:55:58;;;;;;;8.93;2.05;;;;;;;16.60;43.55;94410.59;5015993;28;20037;-72
2021/11/06 00:58:24;;;;;;;4.45;2.20;;;;;;;16.23;44.09;94356.84;5004331;28;20530;-74
2021/11/06 01:00:49;;;;;;;8.02;2.58;;;;;;;16.54;43.76;94407.34;5012699;28;20025;-74
2021/11/06 01:03:15;;;;;;;7.82;3.83;;;;;;;16.36;43.74;94378.38;5013434;28;20017;-74
2021/11/06 01:05:40;;;;;;;5.68;3.53;;;;;;;16.44;43.75;94393.56;5017819;28;20099;-75
2021/11/06 01:08:05;;;;;;;4.32;2.58;;;;;;;16.33;43.94;94392.47;5018722;28;20064;-74
2021/11/06 01:10:32;;;;;;;12.02;3.58;;;;;;;16.34;44.36;94402.84;5004073;28;20042;-75
2021/11/06 01:12:57;;;;;;;7.30;3.10;;;;;;;16.42;43.95;94395.81;5015704;28;20734;-74
2021/11/06 01:15:23;;;;;;;5.22;2.10;;;;;;;16.32;44.08;94405.09;5031903;28;20345;-76
2021/11/06 01:17:49;;;;;;;6.10;2.30;;;;;;;16.25;44.51;94415.56;5018168;28;20109;-74
2021/11/06 01:20:15;;;;;;;7.35;3.08;;;;;;;16.24;44.66;94425.50;5014271;28;20038;-74
2021/11/06 01:22:41;;;;;;;4.15;2.00;;;;;;;16.13;44.70;94400.25;5012678;28;20130;-75
2021/11/06 01:25:07;;;;;;;6.65;3.53;;;;;;;16.30;44.61;94424.22;5017105;28;20192;-74
2021/11/06 01:27:35;;;;;;;5.28;2.95;;;;;;;16.33;44.48;94420.84;5017220;28;20665;-76
2021/11/06 01:30:01;;;;;;;3.80;2.10;;;;;;;16.27;44.62;94400.72;5021949;28;20037;-73
2021/11/06 01:32:26;;;;;;;4.60;2.50;;;;;;;16.40;44.46;94432.94;5011905;28;20053;-73
2021/11/06 01:34:52;;;;;;;5.25;2.50;;;;;;;16.52;44.13;94438.34;5017458;28;20069;-74
2021/11/06 01:37:17;;;;;;;5.35;2.58;;;;;;;16.27;44.88;94427.56;5014735;28;20129;-72
2021/11/06 01:39:43;;;;;;;11.85;3.42;;;;;;;16.24;44.97;94430.09;5007556;28;20022;-75
2021/11/06 01:42:08;;;;;;;6.57;2.75;;;;;;;16.22;44.81;94435.81;5019277;28;20575;-75
2021/11/06 01:44:34;;;;;;;7.38;3.13;;;;;;;16.04;45.01;94412.97;5019010;28;20037;-73
2021/11/06 01:46:59;;;;;;;7.32;3.72;;;;;;;16.28;44.85;94439.06;5019800;28;20041;-75
2021/11/06 01:49:26;;;;;;;9.55;3.60;;;;;;;16.43;44.81;94445.72;5018653;28;20029;-74
2021/11/06 01:51:53;;;;;;;8.55;3.70;;;;;;;16.15;45.05;94440.94;5016800;28;20033;-75
2021/11/06 01:54:23;;;;;;;6.90;2.97;;;;;;;16.00;45.43;94427.38;5010229;28;20051;-73
2021/11/06 01:56:50;;;;;;;9.30;3.85;;;;;;;16.04;45.65;94437.09;5008927;28;20614;-74
2021/11/06 01:59:16;;;;;;;9.80;3.85;;;;;;;16.06;45.61;94445.63;5009628;28;20633;-73
2021/11/06 02:01:41;;;;;;;9.45;3.83;;;;;;;15.93;45.60;94414.53;5002376;28;20156;-74
2021/11/06 02:04:07;;;;;;;7.68;3.20;;;;;;;15.97;45.44;94410.06;5019763;28;20314;-74
2021/11/06 02:06:32;;;;;;;7.43;2.95;;;;;;;16.10;45.49;94427.72;5016252;28;20029;-73
2021/11/06 02:08:58;;;;;;;5.90;2.92;;;;;;;16.06;45.48;94431.41;5007183;28;20056;-73
2021/11/06 02:11:24;;;;;;;7.68;2.88;;;;;;;15.93;45.61;94403.78;5001446;28;20045;-73
2021/11/06 02:13:49;;;;;;;9.82;3.08;;;;;;;16.15;45.50;94432.88;5006832;28;20053;-73
2021/11/06 02:16:16;;;;;;;8.63;3.40;;;;;;;16.19;45.61;94431.09;5012033;28;20084;-73
2021/11/06 02:18:41;;;;;;;9.13;4.03;;;;;;;15.97;45.61;94418.09;5006932;28;20064;-74
2021/11/06 02:21:09;;;;;;;11.35;4.78;;;;;;;16.02;45.89;94452.75;5011598;28;20156;-74
2021/11/06 02:23:39;;;;;;;11.05;5.78;;;;;;;15.97;46.17;94452.19;5016689;28;20517;-74
2021/11/06 02:26:08;;;;;;;15.07;5.60;;;;;;;15.92;46.53;94455.06;5014270;28;20766;-75
2021/11/06 02:28:33;;;;;;;8.57;4.18;;;;;;;15.79;46.43;94446.22;5014023;28;20041;-74
2021/11/06 02:30:59;;;;;;;8.35;4.45;;;;;;;15.75;46.83;94440.72;5019088;28;21146;-75
2021/11/06 02:33:24;;;;;;;15.38;4.03;;;;;;;15.77;46.76;94453.81;5016121;28;20407;-74
2021/11/06 02:35:50;;;;;;;10.02;4.18;;;;;;;15.70;46.39;94438.22;5018523;28;20136;-73
2021/11/06 02:38:15;;;;;;;8.50;4.13;;;;;;;15.73;46.78;94460.94;5017777;28;20063;-73
2021/11/06 02:40:41;;;;;;;16.58;7.00;;;;;;;15.70;46.98;94477.66;5015718;28;20073;-74
2021/11/06 02:43:07;;;;;;;11.18;4.75;;;;;;;15.62;46.60;94467.81;5014974;28;20484;-73
2021/11/06 02:45:33;;;;;;;22.83;7.13;;;;;;;15.40;47.24;94476.97;5020320;28;20029;-74
2021/11/06 02:47:58;;;;;;;16.52;6.97;;;;;;;15.39;47.49;94497.63;5018715;28;20648;-75
2021/11/06 02:50:24;;;;;;;14.25;5.85;;;;;;;15.15;47.61;94476.03;5017745;28;20041;-73
2021/11/06 02:52:49;;;;;;;23.10;8.35;;;;;;;15.03;47.65;94483.97;5011432;28;20034;-74
2021/11/06 02:55:14;;;;;;;13.40;6.63;;;;;;;14.98;48.45;94497.56;5014615;28;20037;-73
2021/11/06 02:57:40;;;;;;;10.15;4.88;;;;;;;14.78;48.79;94482.22;5027237;28;20029;-74
2021/11/06 03:00:09;;;;;;;15.50;5.57;;;;;;;14.91;48.71;94489.25;5011045;28;20043;-75
2021/11/06 03:02:35;;;;;;;12.27;5.88;;;;;;;15.01;48.39;94494.22;5017265;28;20063;-73
2021/11/06 03:05:09;;;;;;;10.88;4.47;;;;;;;15.13;48.41;94496.19;5010859;28;20041;-74
2021/11/06 03:07:35;;;;;;;9.57;5.05;;;;;;;15.24;48.20;94497.41;5017549;28;20072;-72
2021/11/06 03:10:01;;;;;;;9.70;4.35;;;;;;;15.24;48.18;94484.00;5011001;28;20060;-74
2021/11/06 03:12:28;;;;;;;22.38;5.25;;;;;;;15.23;47.80;94477.06;5019850;28;20018;-73
2021/11/06 03:14:54;;;;;;;6.88;3.92;;;;;;;15.36;47.86;94481.38;5006335;28;20525;-73
2021/11/06 03:17:19;;;;;;;11.43;4.35;;;;;;;15.48;47.14;94486.84;5008845;28;20041;-74
2021/11/06 03:19:45;;;;;;;7.20;4.15;;;;;;;15.51;47.45;94488.09;5015574;28;20487;-73
2021/11/06 03:22:11;;;;;;;9.10;4.50;;;;;;;15.36;47.29;94479.50;5012976;28;20037;-74
2021/11/06 03:24:37;;;;;;;8.05;3.67;;;;;;;15.53;47.41;94504.63;5012727;28;20030;-73
2021/11/06 03:27:03;;;;;;;12.20;5.47;;;;;;;15.30;47.43;94483.47;5007974;28;21007;-73
2021/11/06 03:29:29;;;;;;;10.65;4.43;;;;;;;15.43;47.65;94511.94;5009546;28;20033;-73
2021/11/06 03:31:54;;;;;;;15.25;5.30;;;;;;;15.29;47.96;94513.28;5008004;28;20080;-77
2021/11/06 03:34:20;;;;;;;14.10;5.40;;;;;;;15.21;48.03;94514.91;5014198;28;20159;-75
2021/11/06 03:36:45;;;;;;;12.93;5.15;;;;;;;15.24;48.12;94521.53;5015636;28;20065;-73
2021/11/06 03:39:11;;;;;;;8.80;4.00;;;;;;;15.11;48.55;94519.88;5009873;28;20633;-73
2021/11/06 03:41:37;;;;;;;11.45;4.93;;;;;;;14.99;48.51;94483.84;5011154;28;20458;-73
2021/11/06 03:44:03;;;;;;;9.82;4.20;;;;;;;15.11;48.64;94501.88;5011371;28;20034;-73
2021/11/06 03:46:29;;;;;;;9.65;3.97;;;;;;;15.28;48.61;94523.22;5008494;28;20064;-73
2021/11/06 03:48:54;;;;;;;9.25;3.47;;;;;;;15.23;48.68;94530.66;5014104;28;20153;-74
2021/11/06 03:51:23;;;;;;;7.60;3.55;;;;;;;15.30;48.43;94515.63;5016607;28;20108;-75
2021/11/06 03:53:49;;;;;;;7.82;4.45;;;;;;;15.41;48.14;94513.34;5015582;28;20060;-74
2021/11/06 03:56:14;;;;;;;9.15;4.85;;;;;;;15.34;48.18;94505.06;5009099;28;20053;-73
2021/11/06 03:58:39;;;;;;;11.98;3.47;;;;;;;15.51;47.86;94525.59;4996085;28;20129;-75
2021/11/06 04:01:05;;;;;;;10.85;4.40;;;;;;;15.38;48.12;94532.78;5001864;28;20045;-74
2021/11/06 04:03:30;;;;;;;10.13;3.65;;;;;;;15.12;48.33;94498.09;5007766;28;20044;-74
2021/11/06 04:05:56;;;;;;;8.07;3.65;;;;;;;15.34;48.22;94529.97;5010510;28;20057;-74
2021/11/06 04:08:21;;;;;;;8.40;4.40;;;;;;;15.31;48.08;94511.84;5004957;28;20115;-75
2021/11/06 04:10:47;;;;;;;4.13;2.83;;;;;;;15.46;48.01;94523.91;5006565;28;20041;-74
2021/11/06 04:13:13;;;;;;;10.35;3.45;;;;;;;14.70;49.84;94507.94;5010643;28;20558;-75
2021/11/06 04:15:39;;;;;;;7.03;3.58;;;;;;;14.78;49.04;94477.66;5016456;28;20478;-74
2021/11/06 04:18:05;;;;;;;10.07;3.22;;;;;;;15.15;48.89;94508.19;5022004;28;20033;-74
2021/11/06 04:20:31;;;;;;;10.25;4.13;;;;;;;15.15;49.06;94485.97;5018384;28;20061;-75
2021/11/06 04:22:56;;;;;;;8.52;4.18;;;;;;;15.32;48.36;94507.28;5011169;28;20038;-74
2021/11/06 04:25:21;;;;;;;14.45;5.18;;;;;;;14.77;49.51;94492.13;5007724;28;20061;-74
2021/11/06 04:27:47;;;;;;;14.57;4.28;;;;;;;14.68;49.99;94501.31;5013835;28;20036;-74
2021/11/06 04:30:13;;;;;;;16.23;6.38;;;;;;;14.86;49.81;94506.25;5016205;28;20169;-75
2021/11/06 04:32:39;;;;;;;19.83;5.78;;;;;;;14.74;49.92;94506.19;5010023;28;20038;-75
2021/11/06 04:35:05;;;;;;;8.55;5.15;;;;;;;14.39;50.87;94532.25;5015737;28;20052;-74
2021/11/06 04:37:30;;;;;;;10.30;5.22;;;;;;;14.62;50.63;94537.44;5011380;28;20030;-72
2021/11/06 04:39:55;;;;;;;13.32;4.63;;;;;;;14.75;50.01;94536.41;5007427;28;21065;-73
2021/11/06 04:42:21;;;;;;;31.90;7.10;;;;;;;14.35;50.99;94539.34;5010744;28;20114;-73
2021/11/06 04:44:47;;;;;;;16.33;6.47;;;;;;;14.55;50.66;94557.44;5011013;28;20136;-74
2021/11/06 04:47:12;;;;;;;19.13;7.75;;;;;;;14.15;51.19;94526.66;5023384;28;20038;-74
2021/11/06 04:49:38;;;;;;;6.88;4.10;;;;;;;14.50;51.19;94565.59;5014894;28;20080;-73
2021/11/06 04:52:04;;;;;;;7.45;4.28;;;;;;;14.64;50.62;94567.31;5015916;28;20041;-74
2021/11/06 04:54:30;;;;;;;7.88;4.72;;;;;;;14.69;50.32;94567.16;5030150;28;20049;-76
2021/11/06 04:56:55;;;;;;;7.07;4.43;;;;;;;14.43;50.78;94541.22;5013672;28;20500;-75
2021/11/06 04:59:22;;;;;;;10.73;5.47;;;;;;;14.77;50.37;94550.25;5011524;28;20045;-75
2021/11/06 05:01:48;;;;;;;9.45;4.35;;;;;;;14.66;50.13;94528.44;5032256;28;20398;-73
2021/11/06 05:04:13;;;;;;;9.65;4.13;;;;;;;14.88;49.89;94551.47;5011369;28;20644;-74
2021/11/06 05:06:39;;;;;;;7.43;4.15;;;;;;;15.01;49.70;94556.59;5004057;28;20041;-74
2021/11/06 05:09:04;;;;;;;8.68;5.22;;;;;;;15.03;49.64;94591.13;5001190;28;20042;-75
2021/11/06 05:11:30;;;;;;;14.15;6.63;;;;;;;15.09;49.33;94589.06;5003308;28;20038;-74
2021/11/06 05:13:58;;;;;;;24.90;8.25;;;;;;;14.94;49.56;94590.38;5004597;28;20053;-75
2021/11/06 05:16:23;;;;;;;16.10;7.03;;;;;;;14.75;50.23;94604.16;4992225;28;20625;-75
2021/11/06 05:18:49;;;;;;;12.25;6.03;;;;;;;14.73;50.16;94594.84;4999383;28;20033;-74
2021/11/06 05:21:14;;;;;;;18.60;8.07;;;;;;;14.68;50.17;94592.34;5004852;28;20123;-76
2021/11/06 05:23:40;;;;;;;13.32;5.25;;;;;;;14.47;50.63;94582.28;4997570;28;20057;-74
2021/11/06 05:26:05;;;;;;;15.73;7.80;;;;;;;14.32;51.26;94598.88;5001110;28;20128;-74
2021/11/06 05:28:30;;;;;;;15.30;6.63;;;;;;;14.51;50.96;94601.97;4990008;28;20619;-73
2021/11/06 05:31:01;;;;;;;12.20;6.43;;;;;;;14.36;51.12;94581.06;5003652;28;20053;-75
2021/11/06 05:33:26;;;;;;;12.68;5.15;;;;;;;14.42;50.97;94587.81;4999997;28;20052;-75
2021/11/06 05:35:52;;;;;;;16.52;6.65;;;;;;;14.44;51.04;94585.59;5004319;28;20527;-73
2021/11/06 05:38:17;;;;;;;14.25;5.03;;;;;;;14.76;50.64;94602.25;5009253;28;20452;-73
2021/11/06 05:40:43;;;;;;;16.83;5.22;;;;;;;14.63;50.57;94577.25;5002635;28;20407;-74
2021/11/06 05:43:08;;;;;;;16.88;7.00;;;;;;;14.77;50.67;94603.81;5003937;28;20468;-76
2021/11/06 05:45:33;;;;;;;11.02;6.20;;;;;;;14.36;51.99;94621.22;5004576;28;20052;-75
2021/11/06 05:47:59;;;;;;;11.18;5.32;;;;;;;14.69;51.17;94626.84;5007200;28;21429;-76
2021/11/06 05:50:24;;;;;;;19.17;7.00;;;;;;;14.24;52.43;94618.38;5007525;28;20040;-75
2021/11/06 05:52:50;;;;;;;12.65;6.07;;;;;;;14.33;51.46;94565.63;5008187;28;20037;-74
2021/11/06 05:55:16;;;;;;;13.30;6.10;;;;;;;14.83;50.98;94623.97;5000630;28;20685;-75
2021/11/06 05:57:42;;;;;;;11.38;6.15;;;;;;;14.98;50.99;94642.19;5005701;28;20463;-74
2021/11/06 06:00:15;;;;;;;14.88;8.25;;;;;;;15.01;50.46;94633.50;5001794;28;20108;-74
2021/11/06 06:02:41;;;;;;;11.45;7.68;;;;;;;15.12;50.63;94661.53;5004282;28;20621;-74
2021/11/06 06:05:08;;;;;;;15.43;7.57;;;;;;;15.07;50.89;94640.28;5003234;28;20131;-74
2021/11/06 06:07:37;;;;;;;13.20;5.93;;;;;;;15.24;51.07;94664.34;5009631;28;20049;-74
2021/11/06 06:10:05;;;;;;;17.73;8.90;;;;;;;15.26;50.22;94662.09;5003078;28;20048;-75
2021/11/06 06:12:30;;;;;;;9.63;5.22;;;;;;;15.18;49.86;94644.16;5006415;28;20630;-75
2021/11/06 06:14:56;;;;;;;9.57;5.32;;;;;;;15.27;49.85;94649.50;5001622;28;20050;-75
2021/11/06 06:17:21;;;;;;;14.20;4.32;;;;;;;15.33;49.63;94638.28;5001216;28;20041;-75
2021/11/06 06:19:46;;;;;;;9.68;4.53;;;;;;;15.52;50.03;94666.59;5000028;28;20034;-75
2021/11/06 06:22:12;;;;;;;9.18;4.43;;;;;;;15.61;49.71;94676.16;5005374;28;20042;-76
2021/11/06 06:24:37;;;;;;;13.80;5.60;;;;;;;15.62;49.77;94676.94;4999780;28;21716;-75
2021/11/06 06:27:03;;;;;;;10.52;5.40;;;;;;;15.68;49.98;94676.47;5001669;28;20460;-73
2021/11/06 06:29:28;;;;;;;9.98;5.15;;;;;;;15.68;49.80;94656.91;5003337;28;20045;-74
2021/11/06 06:31:54;;;;;;;13.32;4.57;;;;;;;15.73;49.85;94670.91;5001361;28;20101;-74
2021/11/06 06:34:20;;;;;;;10.25;4.57;;;;;;;15.95;49.56;94675.19;4998955;28;20044;-74
2021/11/06 06:36:45;;;;;;;26.58;11.23;;;;;;;16.00;49.76;94692.97;5003565;28;20992;-74
2021/11/06 06:39:10;;;;;;;15.63;8.32;;;;;;;15.46;49.67;94698.16;4997415;28;20029;-74
2021/11/06 06:41:36;;;;;;;16.40;6.95;;;;;;;15.65;49.74;94676.28;5003129;28;20061;-74
2021/11/06 06:44:02;;;;;;;17.00;7.60;;;;;;;15.87;49.49;94689.44;4999688;28;20041;-74
2021/11/06 06:46:28;;;;;;;19.67;7.72;;;;;;;15.65;49.81;94692.38;5000234;28;20512;-75
2021/11/06 06:48:53;;;;;;;15.07;7.47;;;;;;;15.14;51.10;94698.72;5002224;28;20026;-76
2021/11/06 06:51:19;;;;;;;14.60;7.22;;;;;;;14.99;51.34;94708.84;5004072;28;20486;-74
2021/11/06 06:53:45;;;;;;;11.20;6.90;;;;;;;15.01;51.45;94721.91;5005963;28;20037;-74
2021/11/06 06:56:11;;;;;;;14.32;7.55;;;;;;;15.24;50.88;94725.19;5003429;28;20042;-75
2021/11/06 06:58:36;;;;;;;11.00;6.72;;;;;;;15.22;50.79;94719.34;4996561;28;20506;-75
2021/11/06 07:01:02;;;;;;;10.48;6.18;;;;;;;14.94;51.47;94729.66;4994431;28;20030;-75
2021/11/06 07:03:27;;;;;;;14.00;5.50;;;;;;;14.65;52.54;94734.88;5000586;28;20127;-74
2021/11/06 07:05:53;;;;;;;15.18;6.13;;;;;;;14.04;54.13;94720.66;4996382;28;20041;-74
2021/11/06 07:08:20;;;;;;;11.90;6.50;;;;;;;14.26;54.71;94741.94;5002196;28;20041;-74
2021/11/06 07:10:46;;;;;;;12.13;6.80;;;;;;;13.71;56.21;94733.63;4996343;28;21357;-75
2021/11/06 07:13:18;;;;;;;15.30;8.57;;;;;;;12.96;58.34;94710.47;5002330;28;20045;-75
2021/11/06 07:15:44;;;;;;;11.40;6.82;;;;;;;12.76;60.25;94717.13;5002778;28;20057;-76
2021/11/06 07:18:09;;;;;;;11.02;7.05;;;;;;;12.58;60.38;94670.06;5000154;28;20108;-76
2021/11/06 07:20:35;;;;;;;14.57;7.43;;;;;;;12.88;61.41;94741.41;5002366;28;20042;-75
2021/11/06 07:23:00;;;;;;;13.35;7.85;;;;;;;12.51;63.26;94723.06;5000204;28;20463;-76
2021/11/06 07:25:25;;;;;;;17.38;8.63;;;;;;;12.23;63.81;94689.53;5001799;28;20553;-76
2021/11/06 07:27:51;;;;;;;14.07;7.63;;;;;;;12.02;65.02;94710.56;5000059;28;20625;-76
2021/11/06 07:30:17;;;;;;;13.88;8.48;;;;;;;12.24;65.17;94717.81;4997749;28;21070;-76
2021/11/06 07:32:43;;;;;;;26.35;8.45;;;;;;;12.22;65.62;94726.13;4995840;28;20057;-76
2021/11/06 07:35:09;;;;;;;20.42;9.48;;;;;;;12.24;66.15;94731.13;4999701;28;20500;-78
2021/11/06 07:37:36;;;;;;;15.77;7.95;;;;;;;12.39;65.34;94712.13;4994414;28;20579;-75
2021/11/06 07:40:03;;;;;;;20.90;8.88;;;;;;;12.45;65.05;94730.38;4997591;28;20052;-76
2021/11/06 07:42:28;;;;;;;18.63;8.43;;;;;;;12.41;65.24;94712.63;4997089;28;20458;-74
2021/11/06 07:44:54;;;;;;;14.10;8.18;;;;;;;12.82;63.99;94723.91;4996106;28;20127;-76
2021/11/06 07:47:19;;;;;;;13.50;8.70;;;;;;;12.96;62.97;94704.38;4994505;28;20033;-76
2021/11/06 07:49:45;;;;;;;16.45;8.25;;;;;;;13.15;62.43;94731.66;4997971;28;20040;-76
2021/11/06 07:52:10;;;;;;;16.65;7.55;;;;;;;13.45;61.80;94736.19;4998491;28;20128;-74
2021/11/06 07:54:35;;;;;;;17.45;7.53;;;;;;;13.93;59.98;94746.94;4998623;28;20018;-77
2021/11/06 07:57:01;;;;;;;14.15;7.28;;;;;;;13.84;59.52;94738.06;5004144;28;20029;-77
2021/11/06 07:59:26;;;;;;;15.32;7.63;;;;;;;14.16;58.89;94744.91;4995660;28;20038;-77
2021/11/06 08:01:52;;;;;;;22.25;8.48;;;;;;;14.05;59.08;94730.25;4997947;28;20038;-77
2021/11/06 08:04:17;;;;;;;16.48;8.55;;;;;;;14.13;58.85;94750.91;5002532;28;20491;-75
2021/11/06 08:06:43;;;;;;;17.20;7.45;;;;;;;14.31;58.07;94741.78;4997584;28;20033;-75
2021/11/06 08:09:09;;;;;;;17.35;9.15;;;;;;;13.77;60.18;94731.63;5000747;28;20335;-74
2021/11/06 08:11:34;;;;;;;15.30;7.20;;;;;;;13.84;60.21;94737.31;4996488;28;20029;-75
2021/11/06 08:14:00;;;;;;;18.33;9.23;;;;;;;14.06;60.29;94754.03;5000935;28;20107;-75
2021/11/06 08:16:25;;;;;;;11.60;6.65;;;;;;;14.38;59.10;94741.31;4998793;28;20042;-76
2021/11/06 08:18:51;;;;;;;18.60;8.88;;;;;;;14.84;57.64;94756.78;4997566;28;20211;-76
2021/11/06 08:21:18;;;;;;;17.42;8.73;;;;;;;15.20;55.77;94751.84;5003758;28;20407;-76
2021/11/06 08:23:44;;;;;;;13.32;7.85;;;;;;;15.26;55.32;94729.09;4997018;28;20468;-76
2021/11/06 08:26:11;;;;;;;16.77;8.25;;;;;;;15.17;55.15;94736.38;4999555;28;20499;-76
2021/11/06 08:28:37;;;;;;;16.20;8.43;;;;;;;15.64;54.57;94755.97;4999195;28;20038;-76
2021/11/06 08:31:05;;;;;;;13.52;8.18;;;;;;;15.98;53.94;94746.19;4998542;28;20139;-75
2021/11/06 08:33:31;;;;;;;16.55;8.93;;;;;;;16.00;53.17;94758.16;4995228;28;20030;-77
2021/11/06 08:35:57;;;;;;;12.98;7.55;;;;;;;16.29;52.51;94758.16;4999514;28;20069;-77
2021/11/06 08:38:23;;;;;;;14.65;8.48;;;;;;;16.04;52.69;94748.34;4997421;28;20211;-76
2021/11/06 08:40:50;;;;;;;14.00;7.43;;;;;;;16.22;52.47;94744.47;4999441;28;21327;-77
2021/11/06 08:43:17;;;;;;;16.30;9.60;;;;;;;16.12;52.28;94736.00;4999227;28;20034;-75
2021/11/06 08:45:43;;;;;;;14.75;8.23;;;;;;;15.97;53.03;94745.41;4998664;28;20038;-74
2021/11/06 08:48:08;;;;;;;12.15;7.30;;;;;;;15.88;52.96;94739.31;4993912;28;20460;-76
2021/11/06 08:50:34;;;;;;;13.65;9.23;;;;;;;16.29;51.70;94730.50;4995164;28;20396;-76
2021/11/06 08:53:00;;;;;;;14.25;7.47;;;;;;;16.63;50.69;94732.97;4998591;28;20275;-75
2021/11/06 08:55:26;;;;;;;14.52;8.52;;;;;;;16.59;51.30;94750.06;4996243;28;20451;-76
2021/11/06 08:57:52;;;;;;;12.25;7.25;;;;;;;15.67;53.83;94749.19;4996544;28;20064;-76
2021/11/06 09:00:31;;;;;;;10.77;6.47;;;;;;;16.05;53.29;94743.78;4998298;28;20026;-76
2021/11/06 09:02:57;;;;;;;13.13;7.22;;;;;;;16.40;52.52;94763.16;4999997;28;20044;-74
2021/11/06 09:05:23;;;;;;;10.23;7.13;;;;;;;16.26;52.84;94764.19;4993128;28;20038;-76
2021/11/06 09:07:48;;;;;;;15.48;7.10;;;;;;;16.16;52.39;94771.81;4994592;28;20808;-76
2021/11/06 09:10:16;;;;;;;11.77;7.20;;;;;;;16.45;52.22;94766.44;4998573;28;20079;-76
2021/11/06 09:12:42;;;;;;;9.73;5.93;;;;;;;16.67;51.35;94759.97;4992852;28;20033;-76
2021/11/06 09:15:08;;;;;;;9.40;6.40;;;;;;;16.67;51.73;94770.72;5001843;28;20038;-78
2021/11/06 09:17:34;;;;;;;12.98;7.10;;;;;;;16.95;50.97;94770.94;5006690;28;20477;-75
2021/11/06 09:19:59;;;;;;;12.25;6.25;;;;;;;17.13;50.43;94778.56;5001985;28;20038;-76
2021/11/06 09:22:25;;;;;;;9.70;5.50;;;;;;;16.65;50.44;94746.88;5005784;28;20056;-75
2021/11/06 09:24:52;;;;;;;11.43;5.68;;;;;;;16.81;51.15;94781.97;5001832;28;20543;-76
2021/11/06 09:27:18;;;;;;;10.05;5.95;;;;;;;16.87;50.90;94753.00;5003320;28;20051;-75
2021/11/06 09:29:44;;;;;;;13.73;6.75;;;;;;;17.08;51.01;94769.88;5004892;28;20058;-77
2021/11/06 09:32:10;;;;;;;13.02;6.90;;;;;;;16.83;50.88;94760.94;5003131;28;20133;-76
2021/11/06 09:34:37;;;;;;;13.88;6.97;;;;;;;16.94;50.90;94780.91;5003628;28;20038;-76
2021/11/06 09:37:03;;;;;;;13.32;5.40;;;;;;;17.06;50.36;94761.38;4994829;28;20067;-75
2021/11/06 09:39:28;;;;;;;10.75;6.47;;;;;;;16.77;51.15;94748.81;5003504;28;20041;-76
2021/11/06 09:41:54;;;;;;;11.18;6.38;;;;;;;16.45;52.21;94752.22;5000160;28;20670;-75
2021/11/06 09:44:20;;;;;;;12.52;7.40;;;;;;;16.67;51.82;94757.28;5001148;28;20571;-76
2021/11/06 09:46:46;;;;;;;13.85;7.15;;;;;;;16.97;50.72;94750.69;4999015;28;20127;-76
2021/11/06 09:49:11;;;;;;;14.20;7.88;;;;;;;16.99;50.56;94735.03;4997247;28;20038;-75
2021/11/06 09:51:37;;;;;;;11.43;7.00;;;;;;;16.64;51.45;94745.28;4999390;28;20021;-76
2021/11/06 09:54:04;;;;;;;10.23;7.53;;;;;;;17.13;50.83;94748.97;4994919;28;20042;-76
2021/11/06 09:56:30;;;;;;;11.88;6.28;;;;;;;17.27;50.66;94739.81;4997417;28;20038;-76
2021/11/06 09:59:00;;;;;;;12.93;7.47;;;;;;;17.30;50.08;94747.25;5002951;28;20402;-76
2021/11/06 10:01:28;;;;;;;13.18;6.30;;;;;;;17.14;50.56;94747.88;5008716;28;20042;-76
2021/11/06 10:03:53;;;;;;;12.15;6.50;;;;;;;17.17;51.09;94747.19;4998434;28;20045;-77
2021/11/06 10:06:21;;;;;;;16.10;6.85;;;;;;;17.52;49.99;94752.22;5003582;28;20025;-76
2021/11/06 10:08:48;;;;;;;9.75;6.90;;;;;;;17.59;49.70;94747.88;5001360;28;20038;-77
2021/11/06 10:11:16;;;;;;;10.93;6.57;;;;;;;17.52;49.27;94725.31;5000648;28;20542;-76
2021/11/06 10:14:06;;;;;;;9.75;6.25;;;;;;;17.53;49.35;94748.41;5003905;28;20443;-76
2021/11/06 10:16:35;;;;;;;9.10;5.72;;;;;;;17.50;49.67;94739.09;4995925;28;20377;-77
2021/11/06 10:19:46;;;;;;;13.80;6.88;;;;;;;17.39;49.43;94726.41;5002790;28;20056;-76
2021/11/06 10:22:18;;;;;;;11.38;7.28;;;;;;;17.53;49.33;94732.28;4983130;28;20434;-75
2021/11/06 10:24:59;;;;;;;11.10;6.53;;;;;;;17.41;50.31;94734.94;4995917;28;20584;-75
2021/11/06 10:27:31;;;;;;;11.30;5.88;;;;;;;17.02;50.80;94669.84;5005053;28;20694;-75
2021/11/06 10:30:09;;;;;;;15.77;7.03;;;;;;;17.30;50.91;94705.03;4995641;28;20462;-75
2021/11/06 10:32:36;;;;;;;8.38;5.78;;;;;;;17.42;50.77;94704.22;4996990;28;20038;-75
2021/11/06 10:35:18;;;;;;;11.45;6.35;;;;;;;17.50;49.79;94722.94;4991804;28;20041;-76
2021/11/06 10:37:55;;;;;;;11.75;6.22;;;;;;;17.73;49.66;94715.25;4992527;28;20044;-76
2021/11/06 10:40:21;;;;;;;8.80;6.20;;;;;;;17.91;49.68;94719.28;4992456;28;20156;-75
2021/11/06 10:42:57;;;;;;;11.38;6.43;;;;;;;17.36;50.39;94710.94;5000477;28;20033;-76
2021/11/06 10:45:27;;;;;;;11.52;7.05;;;;;;;17.62;50.22;94719.50;5001937;28;20407;-75
2021/11/06 10:48:06;;;;;;;11.38;7.20;;;;;;;17.90;49.40;94731.16;5005374;28;20196;-76
2021/11/06 10:50:49;;;;;;;11.35;7.22;;;;;;;17.98;48.80;94733.00;5002443;28;20065;-76
2021/11/06 10:53:36;;;;;;;12.20;7.40;;;;;;;17.74;49.17;94732.97;4997583;28;20041;-76
2021/11/06 10:56:24;;;;;;;14.75;7.78;;;;;;;17.87;49.03;94725.66;4986661;28;20504;-76
2021/11/06 10:58:52;;;;;;;13.15;6.28;;;;;;;17.83;48.50;94719.41;4993243;28;20033;-76
2021/11/06 11:01:26;;;;;;;11.27;7.18;;;;;;;17.88;48.42;94711.88;5000595;28;20385;-76
2021/11/06 11:04:00;;;;;;;12.18;7.25;;;;;;;18.04;48.42;94723.56;4998116;28;20498;-75
2021/11/06 11:06:34;;;;;;;11.65;7.35;;;;;;;18.03;48.47;94726.59;4994914;28;20104;-75
2021/11/06 11:09:03;;;;;;;12.05;6.63;;;;;;;17.77;48.30;94716.16;4995169;28;20129;-76
2021/11/06 11:11:35;;;;;;;10.65;6.75;;;;;;;17.51;49.36;94691.47;4998547;28;20129;-75
2021/11/06 11:14:28;;;;;;;11.32;6.95;;;;;;;18.09;48.88;94724.47;4993577;28;20060;-76
2021/11/06 11:17:02;;;;;;;10.43;6.30;;;;;;;17.96;48.90;94713.69;4992871;28;21438;-76
2021/11/06 11:19:31;;;;;;;8.93;6.05;;;;;;;18.26;48.03;94724.22;4998412;28;20144;-75
2021/11/06 11:21:56;;;;;;;10.70;6.05;;;;;;;18.30;47.74;94711.63;4990166;28;20108;-75
2021/11/06 11:24:22;;;;;;;13.88;6.63;;;;;;;18.16;47.98;94700.44;4989949;28;20599;-74
2021/11/06 11:26:50;;;;;;;11.15;5.82;;;;;;;18.30;48.12;94711.63;5002050;28;20538;-75